Time;durP1;ratioP1;P1;durP2;ratioP2;P2;SDS_P1;SDS_P2;PMS_P1;PMS_P2;Temp;Humidity;BMP_temperature;BMP_pressure;BME280_temperature;BME280_humidity;BME280_pressure;Samples;Min_cycle;Max_cycle;Signal;HPM_P1;HPM_P2
2023/11/09 00:00:09;;;;;;;56.28;3.03;;;;;;;;;;5054654;28;20256;-74
2023/11/09 00:02:36;;;;;;;56.42;2.83;;;;;;;;;;5055254;28;20241;-73
2023/11/09 00:05:04;;;;;;;58.10;3.25;;;;;;;;;;5055043;28;20206;-73
2023/11/09 00:07:32;;;;;;;56.55;2.75;;;;;;;;;;5046499;28;20585;-74
2023/11/09 00:10:02;;;;;;;56.50;3.10;;;;;;;;;;5054409;28;20226;-73
2023/11/09 00:12:29;;;;;;;56.70;3.38;;;;;;;;;;5046907;28;20601;-73
2023/11/09 00:14:57;;;;;;;56.80;3.42;;;;;;;;;;5054774;28;20213;-73
2023/11/09 00:17:24;;;;;;;56.70;3.38;;;;;;;;;;5054352;28;21097;-74
2023/11/09 00:19:51;;;;;;;56.40;3.00;;;;;;;;;;5054699;28;20676;-72
2023/11/09 00:22:20;;;;;;;56.23;2.90;;;;;;;;;;5054179;28;20198;-74
2023/11/09 00:24:47;;;;;;;56.50;3.10;;;;;;;;;;5054109;28;20471;-73
2023/11/09 00:27:20;;;;;;;56.50;2.88;;;;;;;;;;5053959;28;20224;-74
2023/11/09 00:29:48;;;;;;;56.80;3.30;;;;;;;;;;5054062;28;20228;-74
2023/11/09 00:32:16;;;;;;;56.25;3.00;;;;;;;;;;5053451;28;20375;-74
2023/11/09 00:34:43;;;;;;;56.60;3.10;;;;;;;;;;5053928;28;20206;-74
2023/11/09 00:37:10;;;;;;;56.65;3.40;;;;;;;;;;5053301;28;20209;-73
2023/11/09 00:39:39;;;;;;;58.35;4.20;;;;;;;;;;5053784;28;20209;-71
2023/11/09 00:42:07;;;;;;;56.75;3.53;;;;;;;;;;5053830;28;20244;-73
2023/11/09 00:44:34;;;;;;;57.83;4.05;;;;;;;;;;5053246;28;20216;-74
2023/11/09 00:47:03;;;;;;;56.33;3.35;;;;;;;;;;5053242;28;20205;-73
2023/11/09 00:49:30;;;;;;;56.50;2.80;;;;;;;;;;5053083;28;20279;-74
2023/11/09 00:51:57;;;;;;;56.55;3.35;;;;;;;;;;5052686;28;20714;-72
2023/11/09 00:54:24;;;;;;;56.42;3.15;;;;;;;;;;5052284;28;20207;-71
2023/11/09 00:56:53;;;;;;;57.45;3.47;;;;;;;;;;5052448;28;20205;-72
2023/11/09 00:59:20;;;;;;;56.95;3.22;;;;;;;;;;5052525;28;20202;-74
2023/11/09 01:01:47;;;;;;;56.40;2.90;;;;;;;;;;5051560;28;20773;-74
2023/11/09 01:04:15;;;;;;;56.78;3.28;;;;;;;;;;5052360;28;20201;-74
2023/11/09 01:06:42;;;;;;;56.50;2.90;;;;;;;;;;5052233;28;20201;-73
2023/11/09 01:09:09;;;;;;;56.40;3.10;;;;;;;;;;5052140;28;20230;-75
2023/11/09 01:11:36;;;;;;;57.15;3.72;;;;;;;;;;5052216;28;20696;-74
2023/11/09 01:14:04;;;;;;;56.70;3.65;;;;;;;;;;5052282;28;20294;-75
2023/11/09 01:16:32;;;;;;;56.28;2.90;;;;;;;;;;5051208;28;20212;-75
2023/11/09 01:18:59;;;;;;;56.20;2.85;;;;;;;;;;5055302;28;20199;-75
2023/11/09 01:21:26;;;;;;;56.40;2.90;;;;;;;;;;5055514;28;20221;-72
2023/11/09 01:23:53;;;;;;;56.67;3.28;;;;;;;;;;5055980;28;20209;-74
2023/11/09 01:26:20;;;;;;;57.05;3.35;;;;;;;;;;5055931;28;20638;-72
2023/11/09 01:28:47;;;;;;;56.25;3.00;;;;;;;;;;5055996;28;20206;-75
2023/11/09 01:31:14;;;;;;;59.22;5.28;;;;;;;;;;5055442;28;20221;-73
2023/11/09 01:33:41;;;;;;;56.38;3.30;;;;;;;;;;5056145;28;20285;-75
2023/11/09 01:36:09;;;;;;;59.85;4.95;;;;;;;;;;5056442;28;20210;-74
2023/11/09 01:38:36;;;;;;;57.17;3.40;;;;;;;;;;5055998;28;20206;-75
2023/11/09 01:41:06;;;;;;;56.40;2.97;;;;;;;;;;5055981;28;20226;-74
2023/11/09 01:43:33;;;;;;;56.43;3.07;;;;;;;;;;5055791;28;20201;-73
2023/11/09 01:46:01;;;;;;;56.58;3.50;;;;;;;;;;5055552;28;20949;-75
2023/11/09 01:48:29;;;;;;;56.30;3.33;;;;;;;;;;5055424;28;20206;-74
2023/11/09 01:50:56;;;;;;;56.13;2.90;;;;;;;;;;5055972;28;20488;-74
2023/11/09 01:53:25;;;;;;;56.67;3.25;;;;;;;;;;5055207;28;20464;-73
2023/11/09 01:55:52;;;;;;;56.40;2.95;;;;;;;;;;5055453;28;20201;-74
2023/11/09 01:58:19;;;;;;;56.38;2.83;;;;;;;;;;5055656;28;20207;-74
2023/11/09 02:00:47;;;;;;;56.17;3.00;;;;;;;;;;5055412;28;20518;-74
2023/11/09 02:03:14;;;;;;;56.15;3.05;;;;;;;;;;5055629;28;20299;-74
2023/11/09 02:05:43;;;;;;;56.38;2.70;;;;;;;;;;5055806;28;20206;-74
2023/11/09 02:08:10;;;;;;;56.38;3.13;;;;;;;;;;5055903;28;20224;-75
2023/11/09 02:10:37;;;;;;;57.08;3.28;;;;;;;;;;5055269;28;20230;-74
2023/11/09 02:13:04;;;;;;;56.17;2.83;;;;;;;;;;5055594;28;20202;-75
2023/11/09 02:15:32;;;;;;;56.47;3.25;;;;;;;;;;5055993;28;20198;-75
2023/11/09 02:17:59;;;;;;;56.67;3.10;;;;;;;;;;5055539;28;20232;-72
2023/11/09 02:20:26;;;;;;;56.28;2.90;;;;;;;;;;5055420;28;20232;-75
2023/11/09 02:22:56;;;;;;;56.30;2.70;;;;;;;;;;5055065;28;20577;-73
2023/11/09 02:25:25;;;;;;;56.20;3.08;;;;;;;;;;5055220;28;20212;-74
2023/11/09 02:27:53;;;;;;;56.95;3.60;;;;;;;;;;5055066;28;20622;-74
2023/11/09 02:30:21;;;;;;;55.97;2.90;;;;;;;;;;5053724;28;20257;-73
2023/11/09 02:32:48;;;;;;;56.40;3.10;;;;;;;;;;5054125;28;20301;-74
2023/11/09 02:35:15;;;;;;;56.45;3.25;;;;;;;;;;5054759;28;20581;-73
2023/11/09 02:37:42;;;;;;;56.97;3.25;;;;;;;;;;5054263;28;20197;-74
2023/11/09 02:40:10;;;;;;;56.58;3.45;;;;;;;;;;5054481;28;20713;-73
2023/11/09 02:42:38;;;;;;;56.30;2.97;;;;;;;;;;5046392;28;20224;-74
2023/11/09 02:45:06;;;;;;;56.40;3.08;;;;;;;;;;5054916;28;20489;-74
2023/11/09 02:47:33;;;;;;;56.38;2.90;;;;;;;;;;5054604;28;20224;-74
2023/11/09 02:50:02;;;;;;;56.40;3.40;;;;;;;;;;5054652;28;20228;-73
2023/11/09 02:52:29;;;;;;;56.08;2.83;;;;;;;;;;5054293;28;20217;-73
2023/11/09 02:54:59;;;;;;;56.80;3.33;;;;;;;;;;5054210;28;20204;-74
2023/11/09 02:57:27;;;;;;;56.25;3.10;;;;;;;;;;5053966;28;20214;-74
2023/11/09 02:59:56;;;;;;;56.60;3.53;;;;;;;;;;5053837;28;20202;-75
2023/11/09 03:02:23;;;;;;;56.70;3.17;;;;;;;;;;5053774;28;20206;-73
2023/11/09 03:04:50;;;;;;;56.38;3.15;;;;;;;;;;5054282;28;20216;-72
2023/11/09 03:07:17;;;;;;;56.40;3.40;;;;;;;;;;5053850;28;20197;-73
2023/11/09 03:09:45;;;;;;;56.70;3.60;;;;;;;;;;5054169;28;20732;-71
2023/11/09 03:12:12;;;;;;;56.38;2.90;;;;;;;;;;5054043;28;20501;-73
2023/11/09 03:14:39;;;;;;;56.47;3.10;;;;;;;;;;5054096;28;20202;-75
2023/11/09 03:17:10;;;;;;;56.47;2.90;;;;;;;;;;5054315;28;20582;-73
2023/11/09 03:19:37;;;;;;;56.60;3.22;;;;;;;;;;5053829;28;20288;-74
2023/11/09 03:22:07;;;;;;;56.38;3.13;;;;;;;;;;5053987;28;20268;-74
2023/11/09 03:24:34;;;;;;;56.50;3.30;;;;;;;;;;5054275;28;20214;-75
2023/11/09 03:27:01;;;;;;;56.60;3.38;;;;;;;;;;5054575;28;20205;-74
2023/11/09 03:29:28;;;;;;;56.40;2.80;;;;;;;;;;5054574;28;20570;-75
2023/11/09 03:31:55;;;;;;;56.28;3.20;;;;;;;;;;5053336;28;20234;-74
2023/11/09 03:34:24;;;;;;;56.22;2.80;;;;;;;;;;5053911;28;20623;-74
2023/11/09 03:36:51;;;;;;;56.50;2.95;;;;;;;;;;5053960;28;20213;-74
2023/11/09 03:39:19;;;;;;;57.75;3.70;;;;;;;;;;5053797;28;20206;-75
2023/11/09 03:41:47;;;;;;;56.58;3.10;;;;;;;;;;5053164;28;20222;-74
2023/11/09 03:44:14;;;;;;;56.47;3.45;;;;;;;;;;5054364;28;20261;-70
2023/11/09 03:46:41;;;;;;;56.28;3.00;;;;;;;;;;5053610;28;20209;-73
2023/11/09 03:49:10;;;;;;;56.65;3.35;;;;;;;;;;5053672;28;20198;-73
2023/11/09 03:51:39;;;;;;;56.78;3.35;;;;;;;;;;5053581;28;20304;-74
2023/11/09 03:54:06;;;;;;;56.47;3.20;;;;;;;;;;5053465;28;20225;-73
2023/11/09 03:56:35;;;;;;;56.65;3.47;;;;;;;;;;5053614;28;20208;-73
2023/11/09 03:59:02;;;;;;;56.75;3.40;;;;;;;;;;5053987;28;20210;-74
2023/11/09 04:01:29;;;;;;;56.40;2.90;;;;;;;;;;5053230;28;20709;-74
2023/11/09 04:04:05;;;;;;;56.28;2.80;;;;;;;;;;5090602;28;20517;-74
2023/11/09 04:06:33;;;;;;;56.47;3.20;;;;;;;;;;5090213;28;20205;-74
2023/11/09 04:09:00;;;;;;;56.33;2.95;;;;;;;;;;5091061;28;20297;-74
2023/11/09 04:11:27;;;;;;;56.75;3.47;;;;;;;;;;5075390;28;20241;-74
2023/11/09 04:13:54;;;;;;;56.38;3.05;;;;;;;;;;5069808;28;20260;-74
2023/11/09 04:16:21;;;;;;;57.08;3.60;;;;;;;;;;5069450;28;20210;-72
2023/11/09 04:18:49;;;;;;;56.35;2.85;;;;;;;;;;5069394;28;20638;-74
2023/11/09 04:21:17;;;;;;;56.35;3.22;;;;;;;;;;5068703;28;20228;-74
2023/11/09 04:23:44;;;;;;;56.38;3.05;;;;;;;;;;5069216;28;20225;-74
2023/11/09 04:26:12;;;;;;;56.80;3.28;;;;;;;;;;5069288;28;20212;-74
2023/11/09 04:28:40;;;;;;;56.45;3.03;;;;;;;;;;5069412;28;20306;-72
2023/11/09 04:31:10;;;;;;;56.25;2.70;;;;;;;;;;5068809;28;20231;-73
2023/11/09 04:33:37;;;;;;;57.00;3.95;;;;;;;;;;5068915;28;20213;-74
2023/11/09 04:36:08;;;;;;;56.20;2.60;;;;;;;;;;5068528;28;20226;-73
2023/11/09 04:38:38;;;;;;;56.38;3.10;;;;;;;;;;5069424;28;20202;-73
2023/11/09 04:41:09;;;;;;;56.38;3.15;;;;;;;;;;5069054;28;20225;-73
2023/11/09 04:43:37;;;;;;;56.40;2.70;;;;;;;;;;5068721;28;20222;-73
2023/11/09 04:46:10;;;;;;;56.55;3.33;;;;;;;;;;5068825;28;20301;-74
2023/11/09 04:48:44;;;;;;;56.28;3.00;;;;;;;;;;5069124;28;20218;-74
2023/11/09 04:51:20;;;;;;;56.28;3.25;;;;;;;;;;5068539;28;20229;-74
2023/11/09 04:53:51;;;;;;;56.60;3.20;;;;;;;;;;5069396;28;20323;-74
2023/11/09 04:56:32;;;;;;;56.40;2.90;;;;;;;;;;5068369;28;20210;-71
2023/11/09 04:59:02;;;;;;;56.40;3.08;;;;;;;;;;5069076;28;20746;-74
2023/11/09 05:07:03;;;;;;;56.20;2.70;;;;;;;;;;5045006;28;20222;-73
2023/11/09 05:09:31;;;;;;;56.20;2.70;;;;;;;;;;5068971;28;20211;-74
2023/11/09 05:11:59;;;;;;;56.45;2.65;;;;;;;;;;5068311;28;20234;-73
2023/11/09 05:14:26;;;;;;;56.28;3.33;;;;;;;;;;5060605;28;20211;-74
2023/11/09 05:16:53;;;;;;;56.38;2.90;;;;;;;;;;5054981;28;20231;-74
2023/11/09 05:19:20;;;;;;;56.10;2.60;;;;;;;;;;5055148;28;20214;-74
2023/11/09 05:21:47;;;;;;;56.85;3.90;;;;;;;;;;5054854;28;20253;-73
2023/11/09 05:24:14;;;;;;;56.50;2.90;;;;;;;;;;5055399;28;20226;-74
2023/11/09 05:26:43;;;;;;;55.92;2.80;;;;;;;;;;5054953;28;20273;-73
2023/11/09 05:29:10;;;;;;;56.10;2.90;;;;;;;;;;5055773;28;20736;-74
2023/11/09 05:31:37;;;;;;;56.40;3.28;;;;;;;;;;5055176;28;20234;-75
2023/11/09 05:34:05;;;;;;;56.28;3.00;;;;;;;;;;5055300;28;20218;-74
2023/11/09 05:36:34;;;;;;;56.00;2.70;;;;;;;;;;5055190;28;20214;-75
2023/11/09 05:39:01;;;;;;;56.20;2.80;;;;;;;;;;5055329;28;20234;-73
2023/11/09 05:41:29;;;;;;;56.10;2.83;;;;;;;;;;5054737;28;20228;-75
2023/11/09 05:43:57;;;;;;;56.10;2.85;;;;;;;;;;5054892;28;20276;-74
2023/11/09 05:46:25;;;;;;;56.08;2.90;;;;;;;;;;5055144;28;20216;-71
2023/11/09 05:48:52;;;;;;;56.50;3.08;;;;;;;;;;5054826;28;20210;-72
2023/11/09 05:51:21;;;;;;;55.97;2.90;;;;;;;;;;5054649;28;20238;-74
2023/11/09 05:53:49;;;;;;;55.97;2.90;;;;;;;;;;5054614;28;20672;-74
2023/11/09 05:56:16;;;;;;;56.13;2.80;;;;;;;;;;5054542;28;20268;-74
2023/11/09 05:58:44;;;;;;;56.08;2.70;;;;;;;;;;5054418;28;20625;-74
2023/11/09 06:01:13;;;;;;;56.27;3.17;;;;;;;;;;5054785;28;20264;-71
2023/11/09 06:03:41;;;;;;;55.97;2.60;;;;;;;;;;5054248;28;20931;-72
2023/11/09 06:06:08;;;;;;;56.13;3.28;;;;;;;;;;5054616;28;20665;-71
2023/11/09 06:08:35;;;;;;;56.10;2.70;;;;;;;;;;5054917;28;20672;-72
2023/11/09 06:11:02;;;;;;;57.50;3.53;;;;;;;;;;5054480;28;20289;-74
2023/11/09 06:13:30;;;;;;;56.58;3.30;;;;;;;;;;5055027;28;20204;-72
2023/11/09 06:15:58;;;;;;;56.63;3.58;;;;;;;;;;5054608;28;20216;-74
2023/11/09 06:18:26;;;;;;;56.05;2.72;;;;;;;;;;5054860;28;20209;-74
2023/11/09 06:20:54;;;;;;;56.40;2.83;;;;;;;;;;5054547;28;20230;-74
2023/11/09 06:23:22;;;;;;;56.10;3.00;;;;;;;;;;5054118;28;20714;-74
2023/11/09 06:25:51;;;;;;;56.10;2.70;;;;;;;;;;5053784;28;20217;-74
2023/11/09 06:28:19;;;;;;;56.35;3.00;;;;;;;;;;5053674;28;20213;-74
2023/11/09 06:30:46;;;;;;;56.38;3.00;;;;;;;;;;5053499;28;20595;-73
2023/11/09 06:33:13;;;;;;;56.30;3.55;;;;;;;;;;5053710;28;20293;-75
2023/11/09 06:35:41;;;;;;;56.17;2.70;;;;;;;;;;5052978;28;20249;-73
2023/11/09 06:38:09;;;;;;;56.22;2.90;;;;;;;;;;5053770;28;20293;-73
2023/11/09 06:40:37;;;;;;;56.30;3.47;;;;;;;;;;5054954;28;20238;-73
2023/11/09 06:43:04;;;;;;;56.88;4.15;;;;;;;;;;5054102;28;20235;-73
2023/11/09 06:45:31;;;;;;;56.17;3.00;;;;;;;;;;5054695;28;20218;-72
2023/11/09 06:47:58;;;;;;;56.38;3.45;;;;;;;;;;5054269;28;20261;-73
2023/11/09 06:50:26;;;;;;;56.17;3.15;;;;;;;;;;5054656;28;20246;-73
2023/11/09 06:52:55;;;;;;;56.40;3.00;;;;;;;;;;5053970;28;20207;-73
2023/11/09 06:55:22;;;;;;;56.00;2.72;;;;;;;;;;5053617;28;20671;-72
2023/11/09 06:57:50;;;;;;;56.05;2.88;;;;;;;;;;5054091;28;20199;-74
2023/11/09 07:00:21;;;;;;;56.10;2.90;;;;;;;;;;5053578;28;20322;-74
2023/11/09 07:02:49;;;;;;;56.00;2.78;;;;;;;;;;5053466;28;20226;-73
2023/11/09 07:05:16;;;;;;;57.20;3.78;;;;;;;;;;5053381;28;20633;-73
2023/11/09 07:07:43;;;;;;;56.07;2.87;;;;;;;;;;5062674;28;20270;-73
2023/11/09 07:10:15;;;;;;;56.25;2.88;;;;;;;;;;5071056;28;20971;-72
2023/11/09 07:12:42;;;;;;;56.40;3.63;;;;;;;;;;5072967;28;20208;-71
2023/11/09 07:15:10;;;;;;;56.20;2.80;;;;;;;;;;5072024;28;20207;-73
2023/11/09 07:17:37;;;;;;;56.33;2.78;;;;;;;;;;5072644;28;20268;-71
2023/11/09 07:20:05;;;;;;;55.90;3.10;;;;;;;;;;5073492;28;20286;-73
2023/11/09 07:22:33;;;;;;;56.25;3.00;;;;;;;;;;5063694;28;20450;-74
2023/11/09 07:25:00;;;;;;;57.53;3.63;;;;;;;;;;5055712;28;20209;-74
2023/11/09 07:27:29;;;;;;;56.05;3.17;;;;;;;;;;5057017;28;20273;-74
2023/11/09 07:29:56;;;;;;;56.67;3.30;;;;;;;;;;5056465;28;20211;-73
2023/11/09 07:32:23;;;;;;;56.17;3.00;;;;;;;;;;5056085;28;20211;-74
2023/11/09 07:34:50;;;;;;;56.00;2.60;;;;;;;;;;5057004;28;20597;-73
2023/11/09 07:37:17;;;;;;;55.97;2.80;;;;;;;;;;5058284;28;20217;-73
2023/11/09 07:39:44;;;;;;;56.60;4.25;;;;;;;;;;5072147;28;20485;-69
2023/11/09 07:42:11;;;;;;;56.07;3.00;;;;;;;;;;5073092;28;20211;-72
2023/11/09 07:44:40;;;;;;;55.87;2.67;;;;;;;;;;5073240;28;20520;-73
2023/11/09 07:47:08;;;;;;;56.10;2.88;;;;;;;;;;5073605;28;20452;-71
2023/11/09 07:49:35;;;;;;;56.00;2.80;;;;;;;;;;5071915;28;20242;-72
2023/11/09 07:52:04;;;;;;;56.07;2.70;;;;;;;;;;5072541;28;20585;-70
2023/11/09 07:54:31;;;;;;;56.28;2.97;;;;;;;;;;5075010;28;20540;-72
2023/11/09 07:57:01;;;;;;;55.97;2.67;;;;;;;;;;5074212;28;20207;-69
2023/11/09 07:59:28;;;;;;;55.90;2.38;;;;;;;;;;5074097;28;20454;-70
2023/11/09 08:01:57;;;;;;;55.90;2.60;;;;;;;;;;5073358;28;20998;-74
2023/11/09 08:04:27;;;;;;;55.90;3.17;;;;;;;;;;5059721;28;20998;-74
2023/11/09 08:06:54;;;;;;;56.00;3.07;;;;;;;;;;5057967;28;20457;-73
2023/11/09 08:09:21;;;;;;;55.97;2.30;;;;;;;;;;5057997;28;20445;-74
2023/11/09 08:11:49;;;;;;;55.67;2.30;;;;;;;;;;5058184;28;20478;-74
2023/11/09 08:14:18;;;;;;;55.90;2.50;;;;;;;;;;5057325;28;20446;-73
2023/11/09 08:16:46;;;;;;;55.90;2.60;;;;;;;;;;5059190;28;20447;-74
2023/11/09 08:19:14;;;;;;;55.90;2.43;;;;;;;;;;5058381;28;20460;-73
2023/11/09 08:21:41;;;;;;;55.73;2.30;;;;;;;;;;5057675;28;20474;-74
2023/11/09 08:24:09;;;;;;;57.10;2.27;;;;;;;;;;5059140;28;20525;-73
2023/11/09 08:26:36;;;;;;;56.00;1.97;;;;;;;;;;5058200;28;20446;-72
2023/11/09 08:29:04;;;;;;;55.83;2.20;;;;;;;;;;5059227;28;20460;-72
2023/11/09 08:31:33;;;;;;;56.07;2.00;;;;;;;;;;5068838;28;20466;-74
2023/11/09 08:34:00;;;;;;;55.83;2.00;;;;;;;;;;5065491;28;20455;-72
2023/11/09 08:36:29;;;;;;;55.80;2.20;;;;;;;;;;5058185;28;20446;-74
2023/11/09 08:38:56;;;;;;;55.77;2.07;;;;;;;;;;5056719;28;20459;-72
2023/11/09 08:41:26;;;;;;;55.80;2.40;;;;;;;;;;5057355;28;20562;-74
2023/11/09 08:43:53;;;;;;;55.67;2.10;;;;;;;;;;5056184;28;20544;-73
2023/11/09 08:46:20;;;;;;;55.67;2.30;;;;;;;;;;5056315;28;20442;-74
2023/11/09 08:48:48;;;;;;;56.10;2.43;;;;;;;;;;5059608;28;20451;-74
2023/11/09 08:51:15;;;;;;;57.40;4.10;;;;;;;;;;5062179;28;20466;-72
2023/11/09 08:53:43;;;;;;;56.20;2.00;;;;;;;;;;5060605;28;20446;-76
2023/11/09 08:56:11;;;;;;;55.47;2.00;;;;;;;;;;5059875;28;20454;-75
2023/11/09 08:58:39;;;;;;;56.40;2.70;;;;;;;;;;5061272;28;20534;-70
2023/11/09 09:01:16;;;;;;;55.97;2.20;;;;;;;;;;5062136;28;20885;-74
2023/11/09 09:03:43;;;;;;;55.87;2.30;;;;;;;;;;5060754;28;20873;-73
2023/11/09 09:06:11;;;;;;;55.80;2.03;;;;;;;;;;5060758;28;20811;-74
2023/11/09 09:08:38;;;;;;;55.17;2.00;;;;;;;;;;5058957;28;20454;-74
2023/11/09 09:11:07;;;;;;;55.73;2.20;;;;;;;;;;5058181;28;20553;-73
2023/11/09 09:13:35;;;;;;;55.77;2.10;;;;;;;;;;5059260;28;20458;-73
2023/11/09 09:16:02;;;;;;;55.93;1.90;;;;;;;;;;5058132;28;20455;-73
2023/11/09 09:18:30;;;;;;;56.20;2.10;;;;;;;;;;5058432;28;20866;-71
2023/11/09 09:20:58;;;;;;;55.07;1.73;;;;;;;;;;5049599;28;20505;-73
2023/11/09 09:23:26;;;;;;;55.67;2.07;;;;;;;;;;5058156;28;20454;-73
2023/11/09 09:25:54;;;;;;;55.87;2.00;;;;;;;;;;5058311;28;20447;-74
2023/11/09 09:28:22;;;;;;;55.10;2.30;;;;;;;;;;5058342;28;20459;-74
2023/11/09 09:30:50;;;;;;;56.20;2.30;;;;;;;;;;5058684;28;20471;-73
2023/11/09 09:33:17;;;;;;;55.87;2.40;;;;;;;;;;5058179;28;20545;-73
2023/11/09 09:35:46;;;;;;;55.83;2.00;;;;;;;;;;5058604;28;20974;-73
2023/11/09 09:38:15;;;;;;;54.87;1.83;;;;;;;;;;5061218;28;20467;-74
2023/11/09 09:40:43;;;;;;;55.57;2.00;;;;;;;;;;5061114;28;20489;-73
2023/11/09 09:43:12;;;;;;;55.63;1.97;;;;;;;;;;5062402;28;20466;-74
2023/11/09 09:45:41;;;;;;;55.97;2.10;;;;;;;;;;5061635;28;20498;-72
2023/11/09 09:48:09;;;;;;;55.90;2.47;;;;;;;;;;5059253;28;20510;-73
2023/11/09 09:50:38;;;;;;;55.77;2.10;;;;;;;;;;5060030;28;20546;-74
2023/11/09 09:53:08;;;;;;;55.80;2.00;;;;;;;;;;5058592;28;20462;-73
2023/11/09 09:55:36;;;;;;;55.80;2.10;;;;;;;;;;5061412;28;20454;-74
2023/11/09 09:58:05;;;;;;;55.70;1.73;;;;;;;;;;5061394;28;20542;-74
2023/11/09 10:00:33;;;;;;;55.70;1.90;;;;;;;;;;5059841;28;20478;-72
2023/11/09 10:03:02;;;;;;;55.90;1.80;;;;;;;;;;5059298;28;20467;-72
2023/11/09 10:05:33;;;;;;;55.80;2.27;;;;;;;;;;5056462;28;20487;-74
2023/11/09 10:08:02;;;;;;;59.13;3.00;;;;;;;;;;5055896;28;20958;-73
2023/11/09 10:10:32;;;;;;;55.13;2.03;;;;;;;;;;5057340;28;20471;-74
2023/11/09 10:12:59;;;;;;;56.00;2.00;;;;;;;;;;5058641;28;20454;-73
2023/11/09 10:15:26;;;;;;;55.53;2.10;;;;;;;;;;5060505;28;20503;-73
2023/11/09 10:17:54;;;;;;;55.77;1.90;;;;;;;;;;5060987;28;20465;-74
2023/11/09 10:20:22;;;;;;;55.07;1.90;;;;;;;;;;5060473;28;20471;-74
2023/11/09 10:22:50;;;;;;;55.70;2.07;;;;;;;;;;5059869;28;20515;-73
2023/11/09 10:25:17;;;;;;;55.70;2.20;;;;;;;;;;5059570;28;20552;-73
2023/11/09 10:27:47;;;;;;;56.67;2.70;;;;;;;;;;5059357;28;20464;-74
2023/11/09 10:30:15;;;;;;;56.00;1.90;;;;;;;;;;5060252;28;20569;-74
2023/11/09 10:32:43;;;;;;;55.97;1.87;;;;;;;;;;5059853;28;20483;-73
2023/11/09 10:35:13;;;;;;;55.57;1.70;;;;;;;;;;5060126;28;20794;-74
2023/11/09 10:37:43;;;;;;;55.90;1.80;;;;;;;;;;5060567;28;20456;-73
2023/11/09 10:40:13;;;;;;;55.90;1.77;;;;;;;;;;5060529;28;20494;-73
2023/11/09 10:42:40;;;;;;;55.47;2.30;;;;;;;;;;5060726;28;20537;-72
2023/11/09 10:45:10;;;;;;;55.33;1.90;;;;;;;;;;5059911;28;20491;-72
2023/11/09 10:47:39;;;;;;;55.60;2.00;;;;;;;;;;5062108;28;20460;-72
2023/11/09 10:50:13;;;;;;;55.57;1.87;;;;;;;;;;5063346;28;20518;-71
2023/11/09 10:52:42;;;;;;;55.37;2.00;;;;;;;;;;5062197;28;20951;-72
2023/11/09 10:55:09;;;;;;;55.47;1.87;;;;;;;;;;5060051;28;20550;-71
2023/11/09 10:57:37;;;;;;;55.53;1.90;;;;;;;;;;5058883;28;20462;-72
2023/11/09 11:00:05;;;;;;;55.70;2.13;;;;;;;;;;5060670;28;20593;-72
2023/11/09 11:02:36;;;;;;;55.47;2.10;;;;;;;;;;5060902;28;20466;-72
2023/11/09 11:05:05;;;;;;;55.77;1.80;;;;;;;;;;5059801;28;20486;-72
2023/11/09 11:07:37;;;;;;;59.83;2.73;;;;;;;;;;5058510;28;20534;-72
2023/11/09 11:10:07;;;;;;;55.83;1.73;;;;;;;;;;5059249;28;21142;-72
2023/11/09 11:12:36;;;;;;;55.43;1.70;;;;;;;;;;5058729;28;20485;-73
2023/11/09 11:15:05;;;;;;;55.70;1.90;;;;;;;;;;5051668;28;20514;-72
2023/11/09 11:17:39;;;;;;;55.67;2.10;;;;;;;;;;5058288;28;20458;-72
2023/11/09 11:20:17;;;;;;;55.63;1.70;;;;;;;;;;5058859;28;20903;-73
2023/11/09 11:22:54;;;;;;;55.17;2.00;;;;;;;;;;5058501;28;20481;-72
2023/11/09 11:25:30;;;;;;;55.47;1.90;;;;;;;;;;5057394;28;20846;-70
2023/11/09 11:27:58;;;;;;;55.17;1.90;;;;;;;;;;5052685;28;20549;-71
2023/11/09 11:30:26;;;;;;;55.80;1.90;;;;;;;;;;5065869;28;20545;-70
2023/11/09 11:32:55;;;;;;;55.60;1.70;;;;;;;;;;5066480;28;20463;-72
2023/11/09 11:35:48;;;;;;;55.57;1.90;;;;;;;;;;5073552;28;20443;-70
2023/11/09 11:38:22;;;;;;;56.00;2.20;;;;;;;;;;5056148;28;20450;-72
2023/11/09 11:40:54;;;;;;;55.37;1.90;;;;;;;;;;5065819;28;20500;-73
2023/11/09 11:43:22;;;;;;;55.87;2.30;;;;;;;;;;5060498;28;20458;-74
2023/11/09 11:45:49;;;;;;;55.80;2.10;;;;;;;;;;5061025;28;20486;-73
2023/11/09 11:48:20;;;;;;;55.97;2.03;;;;;;;;;;5059690;28;20524;-71
2023/11/09 11:50:48;;;;;;;55.43;1.90;;;;;;;;;;5059388;28;20538;-71
2023/11/09 11:53:28;;;;;;;56.07;2.00;;;;;;;;;;5060698;28;20460;-73
2023/11/09 11:56:10;;;;;;;55.67;1.90;;;;;;;;;;5059045;28;20456;-72
2023/11/09 11:58:47;;;;;;;55.70;2.00;;;;;;;;;;5059212;28;20578;-73
2023/11/09 12:01:20;;;;;;;55.80;2.10;;;;;;;;;;5059296;28;20466;-73
2023/11/09 12:03:50;;;;;;;55.80;1.80;;;;;;;;;;5057452;28;20460;-73
2023/11/09 12:06:22;;;;;;;55.47;1.90;;;;;;;;;;5067887;28;20995;-73
2023/11/09 12:08:53;;;;;;;55.57;1.90;;;;;;;;;;5067189;28;20454;-73
2023/11/09 12:11:24;;;;;;;56.20;2.00;;;;;;;;;;5065881;28;20475;-72
2023/11/09 12:13:51;;;;;;;55.67;2.00;;;;;;;;;;5068310;28;20445;-71
2023/11/09 12:16:19;;;;;;;55.97;2.40;;;;;;;;;;5065959;28;20441;-73
2023/11/09 12:18:49;;;;;;;55.60;1.90;;;;;;;;;;5067431;28;20999;-71
2023/11/09 12:21:17;;;;;;;55.90;1.90;;;;;;;;;;5061827;28;20494;-74
2023/11/09 12:23:56;;;;;;;56.27;2.80;;;;;;;;;;5064345;28;20494;-69
2023/11/09 12:26:44;;;;;;;55.93;1.93;;;;;;;;;;5066604;28;20470;-68
2023/11/09 12:29:11;;;;;;;55.53;1.80;;;;;;;;;;5067722;28;20639;-74
2023/11/09 12:31:38;;;;;;;55.67;1.80;;;;;;;;;;5068292;28;20495;-69
2023/11/09 12:34:07;;;;;;;56.97;1.80;;;;;;;;;;5065876;28;20477;-72
2023/11/09 12:36:36;;;;;;;55.67;1.87;;;;;;;;;;5067846;28;20455;-73
2023/11/09 12:39:15;;;;;;;55.50;1.80;;;;;;;;;;5071720;28;20948;-73
2023/11/09 12:41:46;;;;;;;56.07;1.93;;;;;;;;;;5067010;28;20507;-73
2023/11/09 12:44:15;;;;;;;55.70;1.90;;;;;;;;;;5067505;28;20535;-72
2023/11/09 12:46:42;;;;;;;56.30;1.93;;;;;;;;;;5070171;28;20462;-68
2023/11/09 12:49:10;;;;;;;55.70;1.80;;;;;;;;;;5069424;28;20465;-72
2023/11/09 12:51:38;;;;;;;55.77;1.80;;;;;;;;;;5068927;28;20464;-73
2023/11/09 12:54:05;;;;;;;55.87;1.80;;;;;;;;;;5064655;28;20519;-72
2023/11/09 12:56:32;;;;;;;55.27;1.90;;;;;;;;;;5064094;28;20446;-73
2023/11/09 12:59:00;;;;;;;55.47;1.70;;;;;;;;;;5067636;28;20449;-73
2023/11/09 13:01:29;;;;;;;55.20;1.87;;;;;;;;;;5064689;28;20479;-72
2023/11/09 13:03:57;;;;;;;55.37;1.73;;;;;;;;;;5065782;28;20548;-73
2023/11/09 13:06:25;;;;;;;55.63;1.80;;;;;;;;;;5062119;28;21094;-72
2023/11/09 13:09:02;;;;;;;55.70;1.90;;;;;;;;;;5064779;28;20434;-73
2023/11/09 13:11:40;;;;;;;55.60;2.10;;;;;;;;;;5061915;28;20469;-73
2023/11/09 13:14:15;;;;;;;55.40;1.70;;;;;;;;;;5062060;28;20449;-74
2023/11/09 13:16:44;;;;;;;55.50;1.87;;;;;;;;;;5060088;28;20453;-70
2023/11/09 13:19:11;;;;;;;55.27;1.90;;;;;;;;;;5059447;28;20470;-74
2023/11/09 13:21:38;;;;;;;55.33;1.60;;;;;;;;;;5060467;28;20486;-74
2023/11/09 13:24:05;;;;;;;58.00;2.50;;;;;;;;;;5062651;28;20448;-72
2023/11/09 13:26:35;;;;;;;55.27;1.67;;;;;;;;;;5062729;28;20494;-70
2023/11/09 13:29:10;;;;;;;55.70;1.80;;;;;;;;;;5067371;28;20578;-73
2023/11/09 13:31:40;;;;;;;55.70;1.70;;;;;;;;;;5071746;28;20473;-68
2023/11/09 13:34:09;;;;;;;55.70;1.90;;;;;;;;;;5067663;28;20842;-72
2023/11/09 13:36:42;;;;;;;55.90;1.67;;;;;;;;;;5065386;28;20463;-73
2023/11/09 13:42:00;;;;;;;55.37;2.00;;;;;;;;;;5065537;28;20533;-72
2023/11/09 13:44:27;;;;;;;55.57;1.80;;;;;;;;;;5067203;28;20483;-68
2023/11/09 13:46:59;;;;;;;55.57;1.70;;;;;;;;;;5066246;28;20483;-70
2023/11/09 13:49:29;;;;;;;55.43;1.80;;;;;;;;;;5061251;28;20455;-71
2023/11/09 13:52:18;;;;;;;55.53;1.70;;;;;;;;;;5061474;28;20499;-73
2023/11/09 13:54:48;;;;;;;55.47;1.80;;;;;;;;;;5062662;28;20498;-71
2023/11/09 13:57:19;;;;;;;55.67;1.83;;;;;;;;;;5059065;28;20455;-72
2023/11/09 13:59:53;;;;;;;55.40;1.80;;;;;;;;;;5067113;28;20459;-72
2023/11/09 14:02:22;;;;;;;57.10;2.30;;;;;;;;;;5059076;28;20455;-72
2023/11/09 14:04:53;;;;;;;55.43;1.80;;;;;;;;;;5061635;28;20449;-73
2023/11/09 14:07:21;;;;;;;55.27;1.70;;;;;;;;;;5069913;28;20480;-73
2023/11/09 14:09:48;;;;;;;55.43;1.50;;;;;;;;;;5068384;28;20517;-74
2023/11/09 14:12:36;;;;;;;55.53;1.73;;;;;;;;;;5064244;28;20969;-71
2023/11/09 14:15:22;;;;;;;55.43;1.60;;;;;;;;;;5069716;28;20520;-71
2023/11/09 14:17:51;;;;;;;55.77;1.83;;;;;;;;;;5070698;28;20472;-69
2023/11/09 14:20:30;;;;;;;55.67;1.90;;;;;;;;;;5069215;28;21021;-73
2023/11/09 14:22:57;;;;;;;55.47;1.90;;;;;;;;;;5062353;28;20473;-71
2023/11/09 14:25:25;;;;;;;55.43;2.00;;;;;;;;;;5065235;28;20546;-73
2023/11/09 14:27:55;;;;;;;54.97;1.87;;;;;;;;;;5064283;28;20485;-73
2023/11/09 14:30:30;;;;;;;55.57;1.73;;;;;;;;;;5065477;28;20556;-72
2023/11/09 14:33:00;;;;;;;55.10;1.80;;;;;;;;;;5060950;28;21013;-72
2023/11/09 14:35:28;;;;;;;55.47;1.60;;;;;;;;;;5065803;28;20444;-73
2023/11/09 14:37:55;;;;;;;55.77;1.80;;;;;;;;;;5061079;28;21045;-72
2023/11/09 14:40:24;;;;;;;55.57;1.77;;;;;;;;;;5065470;28;20558;-72
2023/11/09 14:42:53;;;;;;;55.67;1.80;;;;;;;;;;5062239;28;20513;-71
2023/11/09 14:45:22;;;;;;;55.60;1.80;;;;;;;;;;5060196;28;20495;-71
2023/11/09 14:47:51;;;;;;;55.43;1.60;;;;;;;;;;5058476;28;20458;-70